Time;durP1;ratioP1;P1;durP2;ratioP2;P2;SDS_P1;SDS_P2;PMS_P1;PMS_P2;Temp;Humidity;BMP_temperature;BMP_pressure;BME280_temperature;BME280_humidity;BME280_pressure;Samples;Min_cycle;Max_cycle;Signal;HPM_P1;HPM_P2
2023/07/19 00:00:36;;;;;;;2.08;0.50;;;16.00;99.90;;;;;;4927550;28;20467;-82
2023/07/19 00:03:01;;;;;;;1.85;0.32;;;16.00;99.90;;;;;;4931970;28;20115;-82
2023/07/19 00:05:28;;;;;;;1.15;0.40;;;16.00;99.90;;;;;;4926799;28;20349;-82
2023/07/19 00:07:54;;;;;;;1.10;0.40;;;16.00;99.90;;;;;;4939191;28;20039;-83
2023/07/19 00:10:19;;;;;;;1.20;0.40;;;16.00;99.90;;;;;;4928066;28;20036;-83
2023/07/19 00:12:45;;;;;;;1.67;0.50;;;15.90;99.90;;;;;;4934894;28;20095;-83
2023/07/19 00:15:11;;;;;;;1.40;0.40;;;15.90;99.90;;;;;;4934732;28;20043;-82
2023/07/19 00:17:37;;;;;;;2.03;0.40;;;15.90;99.90;;;;;;4936279;28;20042;-82
2023/07/19 00:20:03;;;;;;;2.38;0.45;;;15.90;99.90;;;;;;4925884;28;20048;-82
2023/07/19 00:22:29;;;;;;;1.83;0.40;;;15.90;99.90;;;;;;4947495;28;20051;-82
2023/07/19 00:24:54;;;;;;;1.25;0.40;;;16.00;99.90;;;;;;4947985;28;20031;-83
2023/07/19 00:27:20;;;;;;;2.03;0.40;;;16.20;99.90;;;;;;4949854;28;20035;-82
2023/07/19 00:29:46;;;;;;;1.33;0.30;;;16.20;99.90;;;;;;4930381;28;20027;-82
2023/07/19 00:32:11;;;;;;;1.45;0.50;;;16.10;99.90;;;;;;4917493;28;20043;-83
2023/07/19 00:34:38;;;;;;;1.27;0.40;;;16.10;99.90;;;;;;4931706;28;20087;-82
2023/07/19 00:37:04;;;;;;;1.80;0.40;;;16.00;99.90;;;;;;4945907;28;20048;-83
2023/07/19 00:39:32;;;;;;;0.90;0.30;;;16.10;99.90;;;;;;4935394;28;20484;-82
2023/07/19 00:41:58;;;;;;;1.33;0.30;;;16.10;99.90;;;;;;4929854;28;20054;-82
2023/07/19 00:44:24;;;;;;;1.55;0.40;;;16.00;99.90;;;;;;4935674;28;20035;-82
2023/07/19 00:46:50;;;;;;;1.42;0.40;;;16.00;99.90;;;;;;4932344;28;20050;-82
2023/07/19 00:49:17;;;;;;;0.63;0.30;;;15.90;99.90;;;;;;4935205;28;20032;-82
2023/07/19 00:51:42;;;;;;;1.63;0.40;;;15.80;99.90;;;;;;4923326;28;20046;-82
2023/07/19 00:54:08;;;;;;;1.00;0.40;;;15.70;99.90;;;;;;4948259;28;20043;-82
2023/07/19 00:56:34;;;;;;;0.93;0.38;;;15.80;99.90;;;;;;4933320;28;20034;-83
2023/07/19 00:59:03;;;;;;;2.28;0.40;;;15.80;99.90;;;;;;4929500;28;20465;-82
2023/07/19 01:01:29;;;;;;;1.23;0.40;;;15.80;99.90;;;;;;4934654;28;20051;-82
2023/07/19 01:03:56;;;;;;;0.82;0.30;;;15.80;99.90;;;;;;4945507;28;20035;-82
2023/07/19 01:06:22;;;;;;;1.33;0.68;;;15.90;99.90;;;;;;4948280;28;20059;-82
2023/07/19 01:08:49;;;;;;;2.08;0.40;;;15.90;99.90;;;;;;4945426;28;20039;-83
2023/07/19 01:11:14;;;;;;;0.90;0.40;;;16.00;99.90;;;;;;4928218;28;20081;-82
2023/07/19 01:13:54;;;;;;;1.83;0.30;;;16.00;99.90;;;;;;4934300;28;20496;-82
2023/07/19 01:16:19;;;;;;;1.00;0.30;;;16.10;99.90;;;;;;4943543;28;20031;-82
2023/07/19 01:18:46;;;;;;;1.30;0.30;;;16.00;99.90;;;;;;4934116;28;20097;-83
2023/07/19 01:21:12;;;;;;;1.25;0.38;;;16.10;99.90;;;;;;4944425;28;20044;-82
2023/07/19 01:23:39;;;;;;;2.55;0.40;;;16.00;99.90;;;;;;4947990;28;20442;-82
2023/07/19 01:26:04;;;;;;;0.45;0.20;;;16.00;99.90;;;;;;4945380;28;20062;-82
2023/07/19 01:28:30;;;;;;;1.25;0.30;;;16.00;99.90;;;;;;4948221;28;20161;-83
2023/07/19 01:30:56;;;;;;;1.27;0.38;;;16.00;99.90;;;;;;4930287;28;20051;-82
2023/07/19 01:33:22;;;;;;;2.22;0.30;;;16.00;99.90;;;;;;4945697;28;20051;-82
2023/07/19 01:35:48;;;;;;;1.23;0.40;;;16.00;99.90;;;;;;4930138;28;20039;-82
2023/07/19 01:38:14;;;;;;;1.58;0.40;;;15.90;99.90;;;;;;4950462;28;20101;-82
2023/07/19 01:40:39;;;;;;;1.38;0.40;;;15.80;99.90;;;;;;4933328;28;20036;-82
2023/07/19 01:43:05;;;;;;;2.28;0.40;;;15.70;99.90;;;;;;4943366;28;20495;-83
2023/07/19 01:45:31;;;;;;;1.15;0.40;;;15.70;99.90;;;;;;4932202;28;20039;-83
2023/07/19 01:47:56;;;;;;;1.42;0.40;;;15.70;99.90;;;;;;4932745;28;20035;-82
2023/07/19 01:50:22;;;;;;;1.67;0.50;;;15.70;99.90;;;;;;4934603;28;20067;-82
2023/07/19 01:52:48;;;;;;;0.77;0.30;;;15.60;99.90;;;;;;4930710;28;20040;-83
2023/07/19 01:55:14;;;;;;;1.45;0.40;;;15.50;99.90;;;;;;4933144;28;20404;-82
2023/07/19 01:57:40;;;;;;;1.20;0.40;;;15.50;99.90;;;;;;4922926;28;20475;-82
2023/07/19 02:00:07;;;;;;;1.05;0.43;;;15.50;99.90;;;;;;4933095;28;20043;-82
2023/07/19 02:02:42;;;;;;;1.25;0.32;;;15.40;99.90;;;;;;4933796;28;20395;-82
2023/07/19 02:05:08;;;;;;;1.88;0.40;;;15.40;99.90;;;;;;4941018;28;20039;-82
2023/07/19 02:07:34;;;;;;;0.82;0.30;;;15.40;99.90;;;;;;4928717;28;20489;-83
2023/07/19 02:09:59;;;;;;;2.17;0.40;;;15.40;99.90;;;;;;4914817;28;20106;-82
2023/07/19 02:12:25;;;;;;;1.30;0.45;;;15.30;99.90;;;;;;4931022;28;20032;-82
2023/07/19 02:14:54;;;;;;;1.80;0.50;;;15.20;99.90;;;;;;4947457;28;20051;-82
2023/07/19 02:17:19;;;;;;;1.58;0.65;;;15.20;99.90;;;;;;4947829;28;20040;-82
2023/07/19 02:19:45;;;;;;;1.58;0.50;;;15.20;99.90;;;;;;4931579;28;20131;-82
2023/07/19 02:22:11;;;;;;;2.85;0.40;;;15.10;99.90;;;;;;4923814;28;20046;-83
2023/07/19 02:24:36;;;;;;;1.30;0.30;;;15.10;99.90;;;;;;4948296;28;20875;-82
2023/07/19 02:27:02;;;;;;;3.03;0.50;;;15.10;99.90;;;;;;4923425;28;20072;-82
2023/07/19 02:29:28;;;;;;;1.10;0.40;;;15.00;99.90;;;;;;4949000;28;20075;-82
2023/07/19 02:31:54;;;;;;;1.33;0.38;;;15.10;99.90;;;;;;4938335;28;20491;-83
2023/07/19 02:34:20;;;;;;;1.48;0.50;;;15.00;99.90;;;;;;4926618;29;20058;-83
2023/07/19 02:36:48;;;;;;;3.83;0.50;;;15.10;99.90;;;;;;4926224;29;20044;-82
2023/07/19 02:39:14;;;;;;;1.10;0.40;;;15.00;99.90;;;;;;4910121;29;20539;-82
2023/07/19 02:41:39;;;;;;;1.90;0.30;;;15.10;99.90;;;;;;4924355;29;20294;-82
2023/07/19 02:44:05;;;;;;;1.67;0.40;;;15.10;99.90;;;;;;4907884;29;20460;-82
2023/07/19 02:46:31;;;;;;;0.88;0.38;;;15.00;99.90;;;;;;4898141;29;20032;-83
2023/07/19 02:48:57;;;;;;;1.30;0.40;;;15.10;99.90;;;;;;4915214;29;20274;-82
2023/07/19 02:51:23;;;;;;;2.05;0.40;;;15.00;99.90;;;;;;4915317;29;20091;-82
2023/07/19 02:53:49;;;;;;;1.23;0.40;;;15.00;99.90;;;;;;4930796;29;20468;-83
2023/07/19 02:56:15;;;;;;;1.27;0.40;;;15.10;99.90;;;;;;4898114;29;20064;-82
2023/07/19 02:58:42;;;;;;;0.98;0.40;;;15.10;99.90;;;;;;4928891;29;20039;-82
2023/07/19 03:01:07;;;;;;;1.05;0.32;;;15.00;99.90;;;;;;4916209;29;20059;-82
2023/07/19 03:03:33;;;;;;;1.10;0.40;;;14.90;99.90;;;;;;4925658;29;20031;-83
2023/07/19 03:06:02;;;;;;;1.23;0.30;;;14.90;99.90;;;;;;4928178;29;20036;-82
2023/07/19 03:08:28;;;;;;;2.05;0.40;;;14.90;99.90;;;;;;4925345;29;20123;-82
2023/07/19 03:10:53;;;;;;;1.10;0.40;;;14.90;99.90;;;;;;4904543;29;20074;-82
2023/07/19 03:13:19;;;;;;;1.02;0.40;;;14.90;99.90;;;;;;4915399;29;20079;-83
2023/07/19 03:15:46;;;;;;;0.80;0.40;;;14.80;99.90;;;;;;4920398;29;20075;-82
2023/07/19 03:18:13;;;;;;;0.90;0.40;;;14.80;99.90;;;;;;4909700;29;20444;-82
2023/07/19 03:20:39;;;;;;;1.33;0.50;;;14.80;99.90;;;;;;4927082;29;20071;-82
2023/07/19 03:23:05;;;;;;;1.55;0.40;;;14.80;99.90;;;;;;4920866;29;20519;-83
2023/07/19 03:25:30;;;;;;;1.35;0.50;;;14.70;99.90;;;;;;4897880;29;20050;-82
2023/07/19 03:27:56;;;;;;;0.93;0.40;;;14.70;99.90;;;;;;4902787;29;20032;-82
2023/07/19 03:30:22;;;;;;;1.42;0.30;;;14.80;99.90;;;;;;4910906;29;20071;-83
2023/07/19 03:32:48;;;;;;;2.28;0.35;;;14.80;99.90;;;;;;4928889;29;20055;-82
2023/07/19 03:35:14;;;;;;;1.38;0.30;;;14.80;99.90;;;;;;4905060;29;20031;-82
2023/07/19 03:37:45;;;;;;;1.42;0.40;;;14.80;99.90;;;;;;4926345;29;20035;-82
2023/07/19 03:40:12;;;;;;;0.82;0.30;;;14.80;99.90;;;;;;4920963;29;20043;-83
2023/07/19 03:42:38;;;;;;;0.98;0.38;;;14.80;99.90;;;;;;4924142;29;20099;-82
2023/07/19 03:45:06;;;;;;;1.52;0.40;;;14.80;99.90;;;;;;4926383;29;20392;-82
2023/07/19 03:47:32;;;;;;;1.58;0.40;;;14.80;99.90;;;;;;4914581;29;20039;-83
2023/07/19 03:49:58;;;;;;;1.20;0.40;;;14.80;99.90;;;;;;4903515;29;20040;-82
2023/07/19 03:52:26;;;;;;;1.67;0.35;;;14.70;99.90;;;;;;4916961;29;20032;-82
2023/07/19 03:54:53;;;;;;;1.13;0.30;;;14.80;99.90;;;;;;4930364;29;20427;-82
2023/07/19 03:57:19;;;;;;;1.40;0.40;;;14.90;99.90;;;;;;4913860;29;20039;-82
2023/07/19 03:59:45;;;;;;;1.65;0.50;;;14.90;99.90;;;;;;4915859;29;20504;-83
2023/07/19 04:02:11;;;;;;;1.17;0.40;;;14.90;99.90;;;;;;4910157;29;20055;-82
2023/07/19 04:04:37;;;;;;;1.23;0.40;;;14.90;99.90;;;;;;4929053;29;20039;-84
2023/07/19 04:07:03;;;;;;;1.63;0.40;;;15.10;99.90;;;;;;4916538;29;20056;-83
2023/07/19 04:09:28;;;;;;;1.27;0.45;;;15.10;99.90;;;;;;4915828;29;20158;-83
2023/07/19 04:11:54;;;;;;;1.10;0.43;;;15.10;99.90;;;;;;4915729;29;20067;-82
2023/07/19 04:14:20;;;;;;;1.80;0.38;;;15.20;99.90;;;;;;4917513;29;20087;-82
2023/07/19 04:16:46;;;;;;;0.90;0.40;;;15.30;99.90;;;;;;4909751;29;20197;-83
2023/07/19 04:19:11;;;;;;;2.55;0.40;;;15.30;99.90;;;;;;4923039;29;20079;-83
2023/07/19 04:21:37;;;;;;;1.40;0.40;;;15.40;99.90;;;;;;4923709;29;20127;-83
2023/07/19 04:24:03;;;;;;;2.75;0.60;;;15.50;99.90;;;;;;4922864;29;20130;-83
2023/07/19 04:26:30;;;;;;;1.90;0.40;;;15.50;99.90;;;;;;4912486;29;20135;-82
2023/07/19 04:28:57;;;;;;;1.98;0.40;;;15.60;99.90;;;;;;4910438;29;20127;-82
2023/07/19 04:31:23;;;;;;;1.00;0.40;;;15.80;99.90;;;;;;4932122;29;20035;-83
2023/07/19 04:33:49;;;;;;;1.80;0.47;;;15.80;99.90;;;;;;4895026;29;20055;-82
2023/07/19 04:36:15;;;;;;;1.02;0.40;;;15.80;99.90;;;;;;4927425;29;20123;-82
2023/07/19 04:38:44;;;;;;;0.90;0.40;;;15.80;99.90;;;;;;4912758;29;20041;-82
2023/07/19 04:41:10;;;;;;;1.10;0.50;;;15.90;99.90;;;;;;4913774;29;20047;-83
2023/07/19 04:43:36;;;;;;;1.30;0.50;;;15.90;99.90;;;;;;4904735;29;20406;-83
2023/07/19 04:46:05;;;;;;;2.03;0.60;;;16.00;99.90;;;;;;4916483;29;20040;-83
2023/07/19 04:48:30;;;;;;;1.33;0.50;;;16.00;99.90;;;;;;4935308;29;20086;-83
2023/07/19 04:50:58;;;;;;;1.67;0.63;;;16.10;99.90;;;;;;4919555;29;20081;-82
2023/07/19 04:53:25;;;;;;;1.67;0.77;;;16.20;99.90;;;;;;4909562;29;20100;-83
2023/07/19 04:55:53;;;;;;;1.95;0.60;;;16.30;99.90;;;;;;4910540;29;20059;-82
2023/07/19 04:58:22;;;;;;;2.03;0.50;;;16.40;99.90;;;;;;4917792;29;20031;-82
2023/07/19 05:00:48;;;;;;;2.38;0.50;;;16.30;99.90;;;;;;4913793;29;20059;-83
2023/07/19 05:03:14;;;;;;;2.25;0.57;;;16.40;99.90;;;;;;4910920;29;20028;-83
2023/07/19 05:05:40;;;;;;;2.10;0.65;;;16.40;99.90;;;;;;4914466;29;20063;-84
2023/07/19 05:08:06;;;;;;;1.48;0.50;;;16.50;99.90;;;;;;4913862;29;20468;-83
2023/07/19 05:10:37;;;;;;;1.40;0.60;;;16.50;99.90;;;;;;4910644;29;20040;-83
2023/07/19 05:13:06;;;;;;;2.75;0.50;;;16.60;99.90;;;;;;4928084;29;20440;-83
2023/07/19 05:15:32;;;;;;;3.00;0.55;;;16.50;99.90;;;;;;4913882;29;20596;-84
2023/07/19 05:18:00;;;;;;;1.83;0.60;;;16.50;99.90;;;;;;4911622;29;20059;-83
2023/07/19 05:20:27;;;;;;;3.03;0.70;;;16.60;99.90;;;;;;4915694;29;20047;-83
2023/07/19 05:22:53;;;;;;;2.08;0.80;;;16.70;99.90;;;;;;4916483;29;20070;-83
2023/07/19 05:25:19;;;;;;;2.67;0.70;;;16.80;99.90;;;;;;4909518;29;20028;-82
2023/07/19 05:27:45;;;;;;;1.70;0.60;;;16.90;99.90;;;;;;4912029;29;20043;-83
2023/07/19 05:30:11;;;;;;;2.35;0.70;;;17.10;99.90;;;;;;4928459;29;20051;-83
2023/07/19 05:32:36;;;;;;;1.98;0.90;;;17.10;99.90;;;;;;4923940;29;20059;-82
2023/07/19 05:35:02;;;;;;;2.38;1.08;;;17.10;99.90;;;;;;4908569;29;20044;-83
2023/07/19 05:37:28;;;;;;;3.85;1.30;;;17.00;99.90;;;;;;4908528;29;20357;-83
2023/07/19 05:39:54;;;;;;;4.03;1.08;;;16.90;99.90;;;;;;4891277;29;20044;-82
2023/07/19 05:42:20;;;;;;;6.78;1.40;;;16.90;99.90;;;;;;4909562;29;20493;-83
2023/07/19 05:44:45;;;;;;;5.90;1.10;;;17.00;99.90;;;;;;4906479;29;20292;-83
2023/07/19 05:47:11;;;;;;;2.28;0.63;;;17.10;99.90;;;;;;4909561;29;20060;-83
2023/07/19 05:49:37;;;;;;;2.10;1.40;;;17.30;99.90;;;;;;4904684;29;20571;-83
2023/07/19 05:52:03;;;;;;;2.50;1.10;;;17.50;99.90;;;;;;4886125;29;20039;-82
2023/07/19 05:54:29;;;;;;;3.55;1.17;;;17.70;99.90;;;;;;4906939;29;20048;-83
2023/07/19 05:56:55;;;;;;;4.90;2.05;;;17.80;99.90;;;;;;4901447;29;20539;-83
2023/07/19 05:59:21;;;;;;;6.43;4.05;;;17.70;99.90;;;;;;4909578;29;20029;-83
2023/07/19 06:01:46;;;;;;;4.63;3.38;;;17.60;99.90;;;;;;4886972;29;20461;-82
2023/07/19 06:04:13;;;;;;;3.83;2.38;;;17.50;99.90;;;;;;4906618;29;20127;-83
2023/07/19 06:06:39;;;;;;;4.88;2.67;;;17.60;99.90;;;;;;4906918;29;20069;-83
2023/07/19 06:09:05;;;;;;;4.13;2.40;;;17.60;99.90;;;;;;4902663;29;20036;-83
2023/07/19 06:11:34;;;;;;;6.40;2.33;;;17.50;99.90;;;;;;4892055;29;20048;-82
2023/07/19 06:14:00;;;;;;;8.05;2.85;;;17.50;99.90;;;;;;4909306;29;20032;-84
2023/07/19 06:16:25;;;;;;;5.07;2.17;;;17.60;99.90;;;;;;4904875;29;20044;-83
2023/07/19 06:18:51;;;;;;;3.90;1.45;;;17.70;99.90;;;;;;4904675;29;20103;-84
2023/07/19 06:21:17;;;;;;;4.97;2.42;;;17.90;99.90;;;;;;4904244;29;20358;-83
2023/07/19 06:23:43;;;;;;;5.07;1.77;;;18.00;99.90;;;;;;4910899;29;20054;-84
2023/07/19 06:26:10;;;;;;;5.28;2.25;;;18.00;99.90;;;;;;4908148;29;20536;-83
2023/07/19 06:28:36;;;;;;;5.50;2.22;;;18.20;99.90;;;;;;4906173;29;20032;-83
2023/07/19 06:31:02;;;;;;;4.20;2.03;;;18.00;99.90;;;;;;4923520;29;20040;-83
2023/07/19 06:33:31;;;;;;;6.32;2.17;;;18.00;99.90;;;;;;4919021;29;20055;-83
2023/07/19 06:35:57;;;;;;;5.10;2.15;;;18.00;99.90;;;;;;4925689;29;20035;-83
2023/07/19 06:38:24;;;;;;;4.25;2.30;;;18.00;99.90;;;;;;4913776;29;20039;-82
2023/07/19 06:40:49;;;;;;;5.20;1.40;;;18.10;99.90;;;;;;4926764;29;20050;-82
2023/07/19 06:43:15;;;;;;;6.40;2.60;;;18.50;99.90;;;;;;4913058;29;20126;-82
2023/07/19 06:45:41;;;;;;;5.25;2.25;;;18.70;99.90;;;;;;4924810;29;20047;-82
2023/07/19 06:48:06;;;;;;;5.70;2.22;;;18.90;99.90;;;;;;4924819;29;20043;-82
2023/07/19 06:50:32;;;;;;;6.05;2.53;;;18.80;99.90;;;;;;4896827;29;20067;-82
2023/07/19 06:52:59;;;;;;;5.20;2.55;;;18.50;99.90;;;;;;4910608;29;20044;-82
2023/07/19 06:55:26;;;;;;;3.35;2.17;;;18.60;99.90;;;;;;4916994;29;20079;-83
2023/07/19 06:57:51;;;;;;;5.63;1.98;;;19.00;99.90;;;;;;4919002;29;20028;-83
2023/07/19 07:00:17;;;;;;;5.65;2.08;;;19.50;99.90;;;;;;4924238;29;20688;-83
2023/07/19 07:02:43;;;;;;;6.22;1.65;;;19.60;99.90;;;;;;4928567;29;20043;-83
2023/07/19 07:05:10;;;;;;;7.00;2.20;;;19.50;99.90;;;;;;4909672;29;20086;-83
2023/07/19 07:07:37;;;;;;;5.47;0.90;;;19.40;99.90;;;;;;4924981;29;20385;-82
2023/07/19 07:10:05;;;;;;;5.15;1.20;;;19.30;99.90;;;;;;4912556;29;20527;-83
2023/07/19 07:12:31;;;;;;;3.35;1.38;;;19.60;99.90;;;;;;4924557;29;20040;-82
2023/07/19 07:14:57;;;;;;;4.25;1.73;;;19.40;99.90;;;;;;4927690;29;20111;-83
2023/07/19 07:17:22;;;;;;;3.65;1.20;;;19.60;99.90;;;;;;4911641;29;20122;-82
2023/07/19 07:19:48;;;;;;;2.72;0.85;;;19.70;99.90;;;;;;4910060;29;20039;-83
2023/07/19 07:22:14;;;;;;;3.83;0.80;;;19.80;99.90;;;;;;4923875;29;20051;-82
2023/07/19 07:24:40;;;;;;;3.85;1.20;;;19.80;99.90;;;;;;4921112;29;20099;-83
2023/07/19 07:27:06;;;;;;;5.82;1.52;;;19.90;99.90;;;;;;4928892;29;20051;-82
2023/07/19 07:29:32;;;;;;;5.00;1.52;;;19.60;99.90;;;;;;4911542;29;20040;-83
2023/07/19 07:31:57;;;;;;;5.13;1.70;;;19.50;99.90;;;;;;4924469;29;20411;-82
2023/07/19 07:34:24;;;;;;;3.28;1.05;;;19.60;99.90;;;;;;4919408;29;20056;-82
2023/07/19 07:36:50;;;;;;;2.60;0.88;;;19.80;99.90;;;;;;4898075;29;20070;-83
2023/07/19 07:39:15;;;;;;;5.05;1.80;;;19.90;99.90;;;;;;4910834;29;20063;-82
2023/07/19 07:41:41;;;;;;;3.38;1.88;;;19.80;99.90;;;;;;4906458;29;20044;-83
2023/07/19 07:44:07;;;;;;;5.70;1.23;;;19.60;99.90;;;;;;4924604;29;20040;-83
2023/07/19 07:46:32;;;;;;;5.10;1.75;;;20.10;99.90;;;;;;4925761;29;20038;-82
2023/07/19 07:48:59;;;;;;;6.60;1.15;;;20.70;99.90;;;;;;4914476;29;20563;-82
2023/07/19 07:51:29;;;;;;;5.85;1.30;;;21.00;99.90;;;;;;4908589;29;20032;-82
2023/07/19 07:53:55;;;;;;;5.10;0.68;;;20.80;99.90;;;;;;4903741;29;20047;-82
2023/07/19 07:56:22;;;;;;;4.38;1.17;;;20.70;99.90;;;;;;4919832;29;20392;-82
2023/07/19 07:58:48;;;;;;;3.40;0.80;;;20.80;99.90;;;;;;4908019;29;20036;-82
2023/07/19 08:01:14;;;;;;;4.55;1.05;;;20.70;99.90;;;;;;4910403;29;20078;-83
2023/07/19 08:03:40;;;;;;;3.38;0.60;;;20.70;99.90;;;;;;4925784;29;20032;-84
2023/07/19 08:06:05;;;;;;;4.38;0.88;;;21.00;99.90;;;;;;4907697;29;20071;-83
2023/07/19 08:08:31;;;;;;;3.30;0.80;;;21.20;99.90;;;;;;4912091;29;20066;-83
2023/07/19 08:10:57;;;;;;;4.30;1.00;;;21.30;99.90;;;;;;4911192;29;20581;-84
2023/07/19 08:13:23;;;;;;;3.85;0.73;;;21.30;99.90;;;;;;4909888;29;20024;-83
2023/07/19 08:15:49;;;;;;;5.30;0.80;;;21.50;99.90;;;;;;4892336;29;20039;-83
2023/07/19 08:18:15;;;;;;;3.30;0.70;;;21.20;99.90;;;;;;4923333;29;20052;-83
2023/07/19 08:20:41;;;;;;;2.63;0.50;;;21.40;99.90;;;;;;4925582;29;20083;-83
2023/07/19 08:23:06;;;;;;;3.10;0.70;;;22.10;99.90;;;;;;4925380;29;20091;-83
2023/07/19 08:25:34;;;;;;;3.85;0.70;;;22.10;99.90;;;;;;4906788;29;20075;-83
2023/07/19 08:28:00;;;;;;;2.80;0.60;;;21.90;99.90;;;;;;4924057;29;20036;-83
2023/07/19 08:30:25;;;;;;;6.28;0.80;;;22.20;99.90;;;;;;4925427;29;20059;-82
2023/07/19 08:32:51;;;;;;;4.15;0.90;;;21.80;99.90;;;;;;4896124;29;20059;-83
2023/07/19 08:35:18;;;;;;;2.70;0.60;;;22.20;99.90;;;;;;4895627;29;20068;-83
2023/07/19 08:37:46;;;;;;;4.30;1.20;;;22.30;99.90;;;;;;4924294;29;20043;-83
2023/07/19 08:40:16;;;;;;;4.50;0.85;;;21.90;99.90;;;;;;4919251;29;20036;-83
2023/07/19 08:42:43;;;;;;;5.60;0.85;;;22.00;99.90;;;;;;4918842;29;20044;-82
2023/07/19 08:45:11;;;;;;;4.63;1.13;;;21.90;99.90;;;;;;4919832;29;20408;-82
2023/07/19 08:47:39;;;;;;;4.38;1.00;;;21.90;99.90;;;;;;4921516;29;20539;-85
2023/07/19 08:50:05;;;;;;;3.97;0.60;;;21.90;99.90;;;;;;4906999;29;20048;-85
2023/07/19 08:52:34;;;;;;;2.60;0.55;;;21.40;99.90;;;;;;4924439;29;20039;-82
2023/07/19 08:55:00;;;;;;;3.78;0.63;;;21.20;99.90;;;;;;4909708;29;20035;-87
2023/07/19 08:57:27;;;;;;;4.75;0.70;;;21.50;99.90;;;;;;4898698;29;20227;-82
2023/07/19 08:59:53;;;;;;;2.55;0.52;;;21.70;99.90;;;;;;4925605;29;20039;-85
2023/07/19 09:02:18;;;;;;;2.35;0.50;;;22.10;99.90;;;;;;4920311;29;20074;-86
2023/07/19 09:05:03;;;;;;;3.92;0.60;;;22.00;99.90;;;;;;4892064;29;20054;-85
2023/07/19 09:07:29;;;;;;;4.03;0.70;;;22.00;99.90;;;;;;4923367;29;20051;-84
2023/07/19 09:09:55;;;;;;;5.78;0.70;;;22.50;99.90;;;;;;4925183;29;20036;-86
2023/07/19 09:12:21;;;;;;;4.03;0.80;;;21.80;99.90;;;;;;4922255;29;20452;-85
2023/07/19 09:14:46;;;;;;;4.97;0.88;;;21.90;99.90;;;;;;4924392;29;20044;-86
2023/07/19 09:17:12;;;;;;;2.97;0.80;;;22.00;99.90;;;;;;4900225;29;20054;-84
2023/07/19 09:19:42;;;;;;;3.50;0.90;;;21.80;99.90;;;;;;4921174;29;20091;-85
2023/07/19 09:22:08;;;;;;;;;;;21.90;99.90;;;;;;4912333;29;20052;-84
2023/07/19 09:24:34;;;;;;;3.25;0.60;;;21.90;99.90;;;;;;4913951;29;19926;-84
2023/07/19 09:27:00;;;;;;;2.85;0.73;;;22.00;99.90;;;;;;4901764;29;20046;-84
2023/07/19 09:29:30;;;;;;;2.03;0.50;;;22.40;99.90;;;;;;4909977;29;20309;-83
2023/07/19 09:32:00;;;;;;;4.03;1.15;;;22.70;99.90;;;;;;4918379;29;20028;-85
2023/07/19 09:34:29;;;;;;;1.85;0.52;;;22.50;99.90;;;;;;4922633;29;20497;-84
2023/07/19 09:36:55;;;;;;;2.85;0.63;;;22.30;99.90;;;;;;4922884;29;20040;-87
2023/07/19 09:39:24;;;;;;;2.10;0.50;;;21.90;99.90;;;;;;4921075;29;20063;-83
2023/07/19 09:41:51;;;;;;;2.88;0.88;;;22.40;99.90;;;;;;4905207;29;20059;-81
2023/07/19 09:44:17;;;;;;;2.70;0.50;;;21.90;99.90;;;;;;4910889;29;20043;-83
2023/07/19 09:46:46;;;;;;;2.33;0.70;;;21.90;99.90;;;;;;4915580;29;20660;-84
2023/07/19 09:49:13;;;;;;;1.98;0.60;;;21.90;99.90;;;;;;4923382;29;20039;-83
2023/07/19 09:51:41;;;;;;;2.72;0.65;;;21.60;99.90;;;;;;4919688;29;20045;-83
2023/07/19 09:54:11;;;;;;;3.38;0.60;;;21.50;99.90;;;;;;4918867;29;20523;-82
2023/07/19 09:56:38;;;;;;;3.13;0.60;;;21.50;99.90;;;;;;4917786;29;20130;-81
2023/07/19 09:59:12;;;;;;;4.03;0.60;;;21.50;99.90;;;;;;4889666;29;20404;-82
2023/07/19 10:01:39;;;;;;;2.58;0.55;;;21.40;99.90;;;;;;4920866;29;20060;-82
2023/07/19 10:04:25;;;;;;;5.80;1.33;;;21.30;99.90;;;;;;4904259;29;20032;-82
2023/07/19 10:07:17;;;;;;;2.40;0.50;;;21.60;99.90;;;;;;4919121;29;20134;-82
2023/07/19 10:09:45;;;;;;;1.90;0.47;;;21.80;99.90;;;;;;4904435;29;20131;-82
2023/07/19 10:12:16;;;;;;;3.05;0.68;;;22.40;99.90;;;;;;4918390;29;20040;-83
2023/07/19 10:14:54;;;;;;;1.30;0.40;;;22.90;99.90;;;;;;4899774;29;20043;-83
2023/07/19 10:17:20;;;;;;;2.45;0.50;;;23.70;99.90;;;;;;4918645;29;20032;-84
2023/07/19 10:20:10;;;;;;;3.78;0.30;;;23.30;99.90;;;;;;4914404;29;20043;-84
2023/07/19 10:22:46;;;;;;;1.92;0.40;;;22.80;99.90;;;;;;4919165;29;20131;-82
2023/07/19 10:25:37;;;;;;;2.22;0.50;;;22.60;99.90;;;;;;4905774;29;20040;-84
2023/07/19 10:28:07;;;;;;;1.27;0.30;;;22.50;99.90;;;;;;4901854;29;20138;-85
2023/07/19 10:30:53;;;;;;;2.50;0.40;;;22.60;99.90;;;;;;4913302;29;20044;-85
2023/07/19 10:33:30;;;;;;;3.42;0.40;;;23.00;99.90;;;;;;4924357;29;20054;-87
2023/07/19 10:36:07;;;;;;;2.20;0.40;;;23.10;99.90;;;;;;4919834;29;20040;-83
2023/07/19 10:38:33;;;;;;;3.35;0.40;;;23.40;99.90;;;;;;4913952;29;20173;-85
2023/07/19 10:41:07;;;;;;;4.93;0.50;;;23.60;99.90;;;;;;4925929;29;20081;-87
2023/07/19 10:43:34;;;;;;;2.47;0.40;;;23.50;99.90;;;;;;4923260;29;20044;-86
2023/07/19 10:46:03;;;;;;;4.35;0.60;;;23.20;99.90;;;;;;4913436;29;20047;-88
2023/07/19 10:48:34;;;;;;;4.18;0.60;;;23.00;99.90;;;;;;4924191;29;20071;-84
2023/07/19 10:51:01;;;;;;;3.42;0.70;;;22.20;99.90;;;;;;4905324;29;20113;-81
2023/07/19 10:53:27;;;;;;;6.22;0.93;;;22.30;99.90;;;;;;4919019;29;20036;-85
2023/07/19 10:55:58;;;;;;;18.60;1.58;;;22.70;99.90;;;;;;4911407;29;20040;-86
2023/07/19 10:58:24;;;;;;;10.20;0.82;;;23.00;99.90;;;;;;4924374;29;20036;-87
2023/07/19 11:00:51;;;;;;;9.85;0.80;;;23.20;99.90;;;;;;4913447;29;20035;-87
2023/07/19 11:03:17;;;;;;;2.28;0.52;;;22.90;99.90;;;;;;4922378;29;20047;-87
2023/07/19 11:05:51;;;;;;;4.15;0.60;;;22.70;99.90;;;;;;4926250;29;20421;-92
2023/07/19 11:08:28;;;;;;;3.38;0.50;;;22.60;99.90;;;;;;4918114;29;20063;-94
2023/07/19 11:10:56;;;;;;;3.42;0.60;;;22.70;99.90;;;;;;4912863;29;20036;-94
2023/07/19 11:13:25;;;;;;;3.72;0.50;;;22.60;99.90;;;;;;4903322;29;20035;-92
2023/07/19 11:15:57;;;;;;;3.20;0.60;;;22.30;99.90;;;;;;4918040;29;20460;-91
2023/07/19 11:18:41;;;;;;;3.13;0.60;;;21.70;99.90;;;;;;4925592;29;20036;-95
2023/07/19 11:21:07;;;;;;;3.55;0.60;;;21.30;99.90;;;;;;4913956;29;20520;-85
2023/07/19 11:23:41;;;;;;;3.97;0.70;;;21.40;99.90;;;;;;4914430;29;20043;-96
2023/07/19 11:26:09;;;;;;;5.60;0.80;;;21.40;99.90;;;;;;4941022;29;20039;-95
2023/07/19 11:28:55;;;;;;;2.67;0.70;;;21.20;99.90;;;;;;4941614;29;20070;-94
2023/07/19 11:31:39;;;;;;;2.33;0.50;;;21.10;99.90;;;;;;4929727;29;20044;-94
2023/07/19 11:34:05;;;;;;;1.48;0.50;;;21.00;99.90;;;;;;4916834;29;20060;-96
2023/07/19 11:36:34;;;;;;;3.30;0.70;;;21.10;99.90;;;;;;4925340;29;20032;-95
2023/07/19 11:39:00;;;;;;;1.30;0.50;;;21.10;99.90;;;;;;4928861;29;20047;-94
2023/07/19 11:41:25;;;;;;;3.25;0.60;;;21.40;99.90;;;;;;4930605;29;20416;-88
2023/07/19 11:43:51;;;;;;;2.08;0.60;;;21.60;99.90;;;;;;4922961;29;20043;-96
2023/07/19 11:46:17;;;;;;;2.10;0.70;;;21.90;99.90;;;;;;4937462;29;20099;-89
2023/07/19 11:48:43;;;;;;;2.72;0.70;;;22.00;99.90;;;;;;4911493;29;20035;-95
2023/07/19 11:51:09;;;;;;;2.22;0.70;;;22.30;99.90;;;;;;4930375;29;20040;-92
2023/07/19 11:53:35;;;;;;;5.60;1.30;;;22.40;99.90;;;;;;4933931;29;20061;-92
2023/07/19 11:56:01;;;;;;;3.20;0.70;;;22.00;99.90;;;;;;4930337;29;20477;-92
2023/07/19 11:58:26;;;;;;;2.38;0.75;;;21.90;99.90;;;;;;4924063;29;20036;-91
2023/07/19 12:00:53;;;;;;;3.13;0.60;;;22.40;99.90;;;;;;4917751;29;20044;-87
2023/07/19 12:03:19;;;;;;;4.20;0.98;;;23.20;99.90;;;;;;4936018;29;20095;-94
2023/07/19 12:05:44;;;;;;;3.95;0.60;;;23.20;99.90;;;;;;4920497;29;20043;-96
2023/07/19 12:08:29;;;;;;;4.97;0.80;;;23.40;99.90;;;;;;5119110;23;20022;-86
2023/07/19 12:10:54;;;;;;;3.13;0.70;;;23.40;99.90;;;;;;5017102;23;20068;-94
2023/07/19 12:13:22;;;;;;;3.78;0.60;;;23.10;99.90;;;;;;4986354;28;20086;-89
2023/07/19 12:15:49;;;;;;;2.50;0.60;;;22.40;99.90;;;;;;4992959;28;20038;-95
2023/07/19 12:18:15;;;;;;;4.65;0.80;;;22.00;99.90;;;;;;4981373;28;20050;-96
2023/07/19 12:20:41;;;;;;;5.60;1.02;;;21.50;99.90;;;;;;4985508;28;20043;-88
2023/07/19 12:23:07;;;;;;;5.43;1.08;;;21.00;99.90;;;;;;4982863;28;20078;-96
2023/07/19 12:25:33;;;;;;;5.97;1.35;;;20.80;99.90;;;;;;4991463;28;20034;-91
2023/07/19 12:27:59;;;;;;;6.82;1.38;;;20.60;99.90;;;;;;4965548;28;20062;-93
2023/07/19 12:30:25;;;;;;;5.38;1.15;;;20.50;99.90;;;;;;4961074;28;20177;-86
2023/07/19 12:32:51;;;;;;;3.20;1.02;;;20.60;99.90;;;;;;4969231;28;20046;-90
2023/07/19 12:35:19;;;;;;;4.53;1.00;;;20.50;99.90;;;;;;4971630;28;20038;-89
2023/07/19 12:37:45;;;;;;;4.43;1.10;;;20.40;99.90;;;;;;4966090;28;20043;-91
2023/07/19 12:40:11;;;;;;;4.03;1.13;;;20.40;99.90;;;;;;4978320;28;20041;-89
2023/07/19 12:42:37;;;;;;;2.58;0.70;;;20.40;99.90;;;;;;4961953;28;20038;-90
2023/07/19 12:45:03;;;;;;;6.72;1.40;;;20.60;99.90;;;;;;4967981;28;20056;-87
2023/07/19 12:47:28;;;;;;;2.03;0.70;;;20.30;99.90;;;;;;4972846;28;20081;-88